Time;durP1;ratioP1;P1;durP2;ratioP2;P2;SDS_P1;SDS_P2;PMS_P1;PMS_P2;Temp;Humidity;BMP_temperature;BMP_pressure;BME280_temperature;BME280_humidity;BME280_pressure;Samples;Min_cycle;Max_cycle;Signal;HPM_P1;HPM_P2
2022/10/10 00:01:43;;;;;;;;;;;8.90;99.90;;;;;;5014437;28;19917;-68
2022/10/10 00:04:09;;;;;;;;;;;9.00;99.90;;;;;;5014268;28;20285;-68
2022/10/10 00:06:34;;;;;;;;;;;8.90;99.90;;;;;;5013142;28;19987;-68
2022/10/10 00:09:00;;;;;;;;;;;8.90;99.90;;;;;;5014041;28;19975;-68
2022/10/10 00:11:33;;;;;;;;;;;8.90;99.90;;;;;;5013493;28;20022;-68
2022/10/10 00:13:58;;;;;;;;;;;8.90;99.90;;;;;;5013423;28;19947;-68
2022/10/10 00:16:24;;;;;;;;;;;9.00;99.90;;;;;;5031657;28;20373;-68
2022/10/10 00:18:50;;;;;;;;;;;9.00;99.90;;;;;;5035043;28;19964;-68
2022/10/10 00:21:16;;;;;;;;;;;9.00;99.90;;;;;;5031252;28;19921;-68
2022/10/10 00:23:44;;;;;;;;;;;9.00;99.90;;;;;;5031989;28;19917;-68
2022/10/10 00:26:10;;;;;;;;;;;9.00;99.90;;;;;;5031727;28;19948;-68
2022/10/10 00:28:37;;;;;;;;;;;9.00;99.90;;;;;;5012831;28;19927;-68
2022/10/10 00:31:03;;;;;;;;;;;8.90;99.90;;;;;;5031724;28;19925;-69
2022/10/10 00:33:32;;;;;;;;;;;8.90;99.90;;;;;;5013950;28;19948;-68
2022/10/10 00:35:57;;;;;;;;;;;8.90;99.90;;;;;;5013035;28;19921;-68
2022/10/10 00:38:23;;;;;;;;;;;8.90;99.90;;;;;;5015554;28;19927;-68
2022/10/10 00:40:50;;;;;;;;;;;8.90;99.90;;;;;;5031518;28;19921;-68
2022/10/10 00:43:16;;;;;;;;;;;8.80;99.90;;;;;;5009365;28;19952;-68
2022/10/10 00:45:43;;;;;;;;;;;8.70;99.90;;;;;;5014270;28;19975;-68
2022/10/10 00:48:14;;;;;;;;;;;8.80;99.90;;;;;;5030570;28;20316;-68
2022/10/10 00:50:55;;;;;;;;;;;8.70;99.90;;;;;;5016104;28;19936;-68
2022/10/10 00:53:22;;;;;;;;;;;8.80;99.90;;;;;;5010847;28;19982;-68
2022/10/10 00:55:48;;;;;;;;;;;8.70;99.90;;;;;;5012885;28;19921;-68
2022/10/10 00:58:15;;;;;;;;;;;8.80;99.90;;;;;;5014373;28;19927;-68
2022/10/10 01:00:40;;;;;;;;;;;8.70;99.90;;;;;;5013263;28;19921;-68
2022/10/10 01:03:06;;;;;;;;;;;8.70;99.90;;;;;;5012850;28;19928;-68
2022/10/10 01:05:32;;;;;;;;;;;8.70;99.90;;;;;;5015710;28;19921;-68
2022/10/10 01:07:57;;;;;;;;;;;8.70;99.90;;;;;;5015601;28;20014;-68
2022/10/10 01:10:23;;;;;;;;;;;8.80;99.90;;;;;;5012481;28;19921;-68
2022/10/10 01:13:04;;;;;;;;;;;8.60;99.90;;;;;;5013529;28;19947;-68
2022/10/10 01:15:30;;;;;;;;;;;8.60;99.90;;;;;;5031166;28;19928;-68
2022/10/10 01:18:00;;;;;;;;;;;8.60;99.90;;;;;;5033587;28;19921;-68
2022/10/10 01:20:35;;;;;;;;;;;8.60;99.90;;;;;;5032958;28;20022;-68
2022/10/10 01:23:09;;;;;;;;;;;8.60;99.90;;;;;;5016826;28;20002;-68
2022/10/10 01:25:55;;;;;;;;;;;8.50;99.90;;;;;;5016668;28;19935;-68
2022/10/10 01:28:40;;;;;;;;;;;8.50;99.90;;;;;;5013830;28;20391;-68
2022/10/10 01:31:09;;;;;;;;;;;8.50;99.90;;;;;;5034149;28;19972;-68
2022/10/10 01:33:47;;;;;;;;;;;8.50;99.90;;;;;;5034167;28;19921;-68
2022/10/10 01:36:38;;;;;;;;;;;8.50;99.90;;;;;;5031379;28;19921;-68
2022/10/10 01:39:12;;;;;;;;;;;8.50;99.90;;;;;;5003234;28;19924;-68
2022/10/10 01:41:41;;;;;;;;;;;8.40;99.90;;;;;;5012435;28;19975;-68
2022/10/10 01:44:07;;;;;;;;;;;8.40;99.90;;;;;;5030013;28;19921;-68
2022/10/10 01:46:32;;;;;;;;;;;8.50;99.90;;;;;;5033014;28;20055;-68
2022/10/10 01:48:59;;;;;;;;;;;8.30;99.90;;;;;;5033931;28;19925;-68
2022/10/10 01:51:33;;;;;;;;;;;8.40;99.90;;;;;;5017219;28;19921;-68
2022/10/10 01:53:59;;;;;;;;;;;8.30;99.90;;;;;;5016861;28;20388;-68
2022/10/10 01:56:30;;;;;;;;;;;8.30;99.90;;;;;;5034321;28;19921;-67
2022/10/10 01:58:55;;;;;;;;;;;8.20;99.90;;;;;;5033095;28;19928;-68
2022/10/10 02:01:28;;;;;;;;;;;8.50;99.90;;;;;;5015889;28;19917;-68
2022/10/10 02:03:59;;;;;;;;;;;8.20;99.90;;;;;;5016101;28;19953;-68
2022/10/10 02:06:28;;;;;;;;;;;8.10;99.90;;;;;;5018565;28;19921;-68
2022/10/10 02:08:56;;;;;;;;;;;8.20;99.90;;;;;;5034142;28;19925;-68
2022/10/10 02:11:22;;;;;;;;;;;8.20;99.90;;;;;;5015834;28;19928;-68
2022/10/10 02:13:49;;;;;;;;;;;8.20;99.90;;;;;;5032980;28;19936;-68
2022/10/10 02:16:18;;;;;;;;;;;8.30;99.90;;;;;;5015999;28;19925;-68
2022/10/10 02:18:44;;;;;;;;;;;8.10;99.90;;;;;;5015935;28;19967;-68
2022/10/10 02:21:11;;;;;;;;;;;8.10;99.90;;;;;;5015572;28;20024;-68
2022/10/10 02:23:37;;;;;;;;;;;8.30;99.90;;;;;;5033528;28;20036;-68
2022/10/10 02:26:03;;;;;;;;;;;8.40;99.90;;;;;;5034107;28;19924;-68
2022/10/10 02:28:33;;;;;;;;;;;8.30;99.90;;;;;;5031759;28;19929;-68
2022/10/10 02:31:04;;;;;;;;;;;8.20;99.90;;;;;;5029918;28;19925;-68
2022/10/10 02:33:48;;;;;;;;;;;8.30;99.90;;;;;;5006614;28;20270;-68
2022/10/10 02:36:15;;;;;;;;;;;8.40;99.90;;;;;;5031618;28;19921;-68
2022/10/10 02:38:42;;;;;;;;;;;8.30;99.90;;;;;;5033172;28;19936;-68
2022/10/10 02:41:09;;;;;;;;;;;8.10;99.90;;;;;;5036592;28;19928;-68
2022/10/10 02:43:35;;;;;;;;;;;8.10;99.90;;;;;;5033075;28;20027;-68
2022/10/10 02:46:01;;;;;;;;;;;8.30;99.90;;;;;;5033201;28;19963;-68
2022/10/10 02:48:26;;;;;;;;;;;8.10;99.90;;;;;;5013969;28;19964;-68
2022/10/10 02:50:52;;;;;;;;;;;8.00;99.90;;;;;;5033018;28;19924;-68
2022/10/10 02:53:17;;;;;;;;;;;8.00;99.90;;;;;;5016157;28;19929;-68
2022/10/10 02:55:43;;;;;;;;;;;7.90;99.90;;;;;;5032271;28;20011;-68
2022/10/10 02:58:09;;;;;;;;;;;7.90;99.90;;;;;;5033477;28;19921;-68
2022/10/10 03:00:37;;;;;;;;;;;7.90;99.90;;;;;;5014769;28;19921;-67
2022/10/10 03:03:03;;;;;;;;;;;7.90;99.90;;;;;;5032289;28;19921;-67
2022/10/10 03:05:28;;;;;;;;;;;7.90;99.90;;;;;;5032529;28;19947;-68
2022/10/10 03:07:54;;;;;;;;;;;7.90;99.90;;;;;;5034789;28;19959;-68
2022/10/10 03:10:19;;;;;;;;;;;7.80;99.90;;;;;;5031399;28;19921;-68
2022/10/10 03:12:45;;;;;;;;;;;7.80;99.90;;;;;;5033019;28;19929;-67
2022/10/10 03:15:11;;;;;;;;;;;8.00;99.90;;;;;;5015060;28;20270;-68
2022/10/10 03:17:36;;;;;;;;;;;7.80;99.90;;;;;;5031332;28;19968;-68
2022/10/10 03:20:02;;;;;;;;;;;7.70;99.90;;;;;;5014746;28;19932;-68
2022/10/10 03:22:28;;;;;;;;;;;7.70;99.90;;;;;;5032138;28;19924;-68
2022/10/10 03:24:56;;;;;;;;;;;7.60;99.90;;;;;;5031484;28;19967;-68
2022/10/10 03:27:25;;;;;;;;;;;7.60;99.90;;;;;;5014782;28;19921;-68
2022/10/10 03:29:54;;;;;;;;;;;7.60;99.90;;;;;;5013039;28;19943;-68
2022/10/10 03:32:19;;;;;;;;;;;7.60;99.90;;;;;;5010934;28;19920;-67
2022/10/10 03:34:45;;;;;;;;;;;7.60;99.90;;;;;;5013826;28;19936;-68
2022/10/10 03:37:13;;;;;;;;;;;7.60;99.90;;;;;;5013618;28;19920;-67
2022/10/10 03:39:38;;;;;;;;;;;7.50;99.90;;;;;;5031113;28;20415;-67
2022/10/10 03:42:04;;;;;;;;;;;8.50;99.90;;;;;;5014454;28;19921;-67
2022/10/10 03:44:29;;;;;;;;;;;7.50;99.90;;;;;;5030990;28;19921;-67
2022/10/10 03:46:55;;;;;;;;;;;7.50;99.90;;;;;;5013833;28;19967;-67
2022/10/10 03:49:21;;;;;;;;;;;7.50;99.90;;;;;;5009838;28;19921;-66
2022/10/10 03:51:46;;;;;;;;;;;7.60;99.90;;;;;;5023104;28;19974;-68
2022/10/10 03:54:12;;;;;;;;;;;7.50;99.90;;;;;;5016723;28;19931;-67
2022/10/10 03:56:37;;;;;;;;;;;7.50;99.90;;;;;;5023441;28;19929;-65
2022/10/10 03:59:05;;;;;;;;;;;7.50;99.90;;;;;;5021014;28;19921;-67
2022/10/10 04:01:33;;;;;;;;;;;7.40;99.90;;;;;;5024881;28;19921;-66
2022/10/10 04:03:59;;;;;;;;;;;7.40;99.90;;;;;;5021955;28;19921;-65
2022/10/10 04:06:28;;;;;;;;;;;7.40;99.90;;;;;;5003062;28;19927;-65
2022/10/10 04:08:53;;;;;;;;;;;7.40;99.90;;;;;;4988614;28;19925;-65
2022/10/10 04:11:19;;;;;;;;;;;7.40;99.90;;;;;;5002060;28;19921;-65
2022/10/10 04:13:45;;;;;;;;;;;7.40;99.90;;;;;;5004575;28;19999;-64
2022/10/10 04:16:10;;;;;;;;;;;7.40;99.90;;;;;;5019703;28;20345;-64
2022/10/10 04:18:36;;;;;;;;;;;7.40;99.90;;;;;;5005127;28;19925;-66
2022/10/10 04:21:03;;;;;;;;;;;7.60;99.90;;;;;;5020318;28;19928;-66
2022/10/10 04:23:28;;;;;;;;;;;7.60;99.90;;;;;;5005627;28;20286;-67
2022/10/10 04:25:54;;;;;;;;;;;7.40;99.90;;;;;;5021457;28;19929;-67
2022/10/10 04:28:19;;;;;;;;;;;7.40;99.90;;;;;;5020937;28;19967;-67
2022/10/10 04:30:45;;;;;;;;;;;7.40;99.90;;;;;;5020858;28;20399;-67
2022/10/10 04:33:13;;;;;;;;;;;7.40;99.90;;;;;;5022329;28;19921;-67
2022/10/10 04:35:39;;;;;;;;;;;7.30;99.90;;;;;;5005439;28;19971;-67
2022/10/10 04:38:05;;;;;;;;;;;7.40;99.90;;;;;;5020225;28;19921;-67
2022/10/10 04:40:31;;;;;;;;;;;7.40;99.90;;;;;;5003902;28;19933;-68
2022/10/10 04:42:56;;;;;;;;;;;7.50;99.90;;;;;;5021281;28;20331;-68
2022/10/10 04:45:25;;;;;;;;;;;7.40;99.90;;;;;;5021182;28;19928;-67
2022/10/10 04:47:52;;;;;;;;;;;7.40;99.90;;;;;;5021126;28;19921;-68
2022/10/10 04:50:18;;;;;;;;;;;7.50;99.90;;;;;;5010364;28;19928;-67
2022/10/10 04:52:43;;;;;;;;;;;7.40;99.90;;;;;;5034586;28;20284;-67
2022/10/10 04:55:09;;;;;;;;;;;7.30;99.90;;;;;;5016666;28;19928;-68
2022/10/10 04:57:34;;;;;;;;;;;7.30;99.90;;;;;;5019706;28;19928;-68
2022/10/10 05:00:00;;;;;;;;;;;7.30;99.90;;;;;;5035361;28;20004;-67
2022/10/10 05:02:25;;;;;;;;;;;7.20;99.90;;;;;;5015633;28;19921;-67
2022/10/10 05:04:51;;;;;;;;;;;7.30;99.90;;;;;;5017063;28;19928;-67
2022/10/10 05:07:16;;;;;;;;;;;7.30;99.90;;;;;;5016936;28;19921;-67
2022/10/10 05:09:42;;;;;;;;;;;7.30;99.90;;;;;;5020367;28;19917;-67
2022/10/10 05:12:07;;;;;;;;;;;7.30;99.90;;;;;;5017079;28;20341;-68
2022/10/10 05:14:33;;;;;;;;;;;7.70;99.90;;;;;;5016828;28;19990;-68
2022/10/10 05:17:01;;;;;;;;;;;7.30;99.90;;;;;;5016127;28;19961;-67
2022/10/10 05:19:27;;;;;;;;;;;7.30;99.90;;;;;;5034447;28;20007;-67
2022/10/10 05:21:55;;;;;;;;;;;7.30;99.90;;;;;;5016708;28;20441;-65
2022/10/10 05:24:24;;;;;;;;;;;7.30;99.90;;;;;;5030857;28;20067;-67
2022/10/10 05:26:49;;;;;;;;;;;7.20;99.90;;;;;;5015656;28;19921;-68
2022/10/10 05:29:15;;;;;;;;;;;7.10;99.90;;;;;;5015901;28;20040;-68
2022/10/10 05:31:40;;;;;;;;;;;7.10;99.90;;;;;;5015884;28;19921;-67
2022/10/10 05:34:08;;;;;;;;;;;7.00;99.90;;;;;;5016927;28;20285;-68
2022/10/10 05:36:34;;;;;;;;;;;7.10;99.90;;;;;;5018470;28;19924;-67
2022/10/10 05:39:00;;;;;;;;;;;7.00;99.90;;;;;;5034927;28;20332;-67
2022/10/10 05:41:26;;;;;;;;;;;6.90;99.90;;;;;;5012253;28;19921;-67
2022/10/10 05:43:51;;;;;;;;;;;7.00;99.90;;;;;;5015875;28;20380;-68
2022/10/10 05:46:19;;;;;;;;;;;7.00;99.90;;;;;;5016128;28;19957;-68
2022/10/10 05:48:47;;;;;;;;;;;7.00;99.90;;;;;;5015696;28;20408;-67
2022/10/10 05:51:20;;;;;;;;;;;7.00;99.90;;;;;;5014492;28;20328;-68
2022/10/10 05:53:45;;;;;;;;;;;8.10;99.90;;;;;;5033140;28;19921;-67
2022/10/10 05:56:11;;;;;;;;;;;7.00;99.90;;;;;;5016527;28;20031;-66
2022/10/10 05:58:37;;;;;;;;;;;7.10;99.90;;;;;;5034125;28;19925;-67
2022/10/10 06:01:04;;;;;;;;;;;7.10;99.90;;;;;;5014843;28;19927;-66
2022/10/10 06:03:29;;;;;;;;;;;7.10;99.90;;;;;;5013103;28;19971;-67
2022/10/10 06:05:55;;;;;;;;;;;7.20;99.90;;;;;;5031433;28;19921;-67
2022/10/10 06:08:21;;;;;;;;;;;7.20;99.90;;;;;;5032627;28;19974;-72
2022/10/10 06:10:46;;;;;;;;;;;7.40;99.90;;;;;;5006127;28;19960;-67
2022/10/10 06:13:12;;;;;;;;;;;8.60;99.90;;;;;;5008132;28;19928;-68
2022/10/10 06:15:38;;;;;;;;;;;7.40;99.90;;;;;;5014965;28;19921;-67
2022/10/10 06:18:04;;;;;;;;;;;7.60;99.90;;;;;;5032736;28;20585;-68
2022/10/10 06:20:29;;;;;;;;;;;7.60;99.90;;;;;;5014418;28;19928;-69
2022/10/10 06:22:55;;;;;;;;;;;7.60;99.90;;;;;;5015307;28;19963;-67
2022/10/10 06:25:20;;;;;;;;;;;7.70;99.90;;;;;;5015865;28;19982;-66
2022/10/10 06:27:46;;;;;;;;;;;7.70;99.90;;;;;;5014965;28;19985;-68
2022/10/10 06:30:12;;;;;;;;;;;7.70;99.90;;;;;;5033537;28;19917;-69
2022/10/10 06:32:37;;;;;;;;;;;7.70;99.90;;;;;;5031949;28;19928;-68
2022/10/10 06:35:03;;;;;;;;;;;7.80;99.90;;;;;;5013451;28;20316;-67
2022/10/10 06:37:28;;;;;;;;;;;7.90;99.90;;;;;;5017600;28;19925;-66
2022/10/10 06:39:55;;;;;;;;;;;8.00;99.90;;;;;;5032447;28;19921;-69
2022/10/10 06:42:20;;;;;;;;;;;8.00;99.90;;;;;;5015150;28;19932;-69
2022/10/10 06:44:46;;;;;;;;;;;8.10;99.90;;;;;;5015388;28;19925;-68
2022/10/10 06:47:11;;;;;;;;;;;8.20;99.90;;;;;;5035942;28;19925;-69
2022/10/10 06:49:37;;;;;;;;;;;8.30;99.90;;;;;;5014542;28;20444;-69
2022/10/10 06:52:02;;;;;;;;;;;8.30;99.90;;;;;;5015109;28;20281;-70
2022/10/10 06:54:28;;;;;;;;;;;8.60;99.90;;;;;;5032218;28;19925;-69
2022/10/10 06:56:53;;;;;;;;;;;8.40;99.90;;;;;;5016065;28;20281;-69
2022/10/10 06:59:22;;;;;;;;;;;8.50;99.90;;;;;;5015065;28;19921;-68
2022/10/10 07:01:47;;;;;;;;;;;8.60;99.90;;;;;;5031893;28;19943;-69
2022/10/10 07:04:13;;;;;;;;;;;8.70;99.90;;;;;;5033068;28;20092;-69
2022/10/10 07:06:38;;;;;;;;;;;8.70;99.90;;;;;;5015091;28;19931;-70
2022/10/10 07:09:04;;;;;;;;;;;8.90;99.90;;;;;;5031710;28;19921;-70
2022/10/10 07:11:30;;;;;;;;;;;8.90;99.90;;;;;;5032561;28;19968;-70
2022/10/10 07:13:55;;;;;;;;;;;9.10;99.90;;;;;;5014183;28;19967;-70
2022/10/10 07:16:21;;;;;;;;;;;9.10;99.90;;;;;;5013990;28;20344;-70
2022/10/10 07:18:47;;;;;;;;;;;9.30;99.90;;;;;;5014956;28;19928;-70
2022/10/10 07:21:12;;;;;;;;;;;9.50;99.90;;;;;;5032797;28;20424;-70
2022/10/10 07:23:38;;;;;;;;;;;9.70;99.90;;;;;;5013394;28;20008;-70
2022/10/10 07:26:05;;;;;;;;;;;9.90;99.90;;;;;;5032601;28;20312;-70
2022/10/10 07:28:31;;;;;;;;;;;10.10;99.90;;;;;;5017306;28;20017;-70
2022/10/10 07:31:02;;;;;;;;;;;10.20;99.90;;;;;;5031414;28;20379;-71
2022/10/10 07:33:35;;;;;;;;;;;10.40;99.90;;;;;;5032260;28;19974;-71
2022/10/10 07:36:00;;;;;;;;;;;10.50;99.90;;;;;;5013980;28;19921;-70
2022/10/10 07:38:26;;;;;;;;;;;10.80;99.90;;;;;;5014967;28;20528;-70
2022/10/10 07:40:52;;;;;;;;;;;11.00;99.90;;;;;;5032380;28;19928;-71
2022/10/10 07:43:17;;;;;;;;;;;11.00;99.90;;;;;;5013814;28;19921;-72
2022/10/10 07:45:43;;;;;;;;;;;11.20;99.90;;;;;;5015010;28;19921;-71
2022/10/10 07:48:09;;;;;;;;;;;11.10;99.90;;;;;;5015767;28;20416;-69
2022/10/10 07:50:34;;;;;;;;;;;11.20;99.90;;;;;;5018016;28;19929;-70
2022/10/10 07:53:00;;;;;;;;;;;11.20;99.90;;;;;;5031518;28;19920;-70
2022/10/10 07:55:25;;;;;;;;;;;11.20;99.90;;;;;;5030535;28;19921;-70
2022/10/10 07:57:51;;;;;;;;;;;11.30;99.90;;;;;;5013120;28;19925;-70
2022/10/10 08:00:17;;;;;;;;;;;11.50;99.90;;;;;;5030574;28;20302;-70
2022/10/10 08:02:42;;;;;;;;;;;11.50;99.90;;;;;;5030506;28;19921;-71
2022/10/10 08:05:08;;;;;;;;;;;11.60;99.90;;;;;;5013996;28;20432;-70
2022/10/10 08:07:34;;;;;;;;;;;11.60;99.90;;;;;;5010547;28;19956;-71
2022/10/10 08:10:02;;;;;;;;;;;11.60;99.90;;;;;;5024184;28;19917;-71
2022/10/10 08:12:27;;;;;;;;;;;11.70;99.90;;;;;;5030641;28;19921;-70
2022/10/10 08:14:53;;;;;;;;;;;11.70;99.90;;;;;;5014427;28;19976;-70
2022/10/10 08:17:19;;;;;;;;;;;11.90;99.90;;;;;;5031666;28;19931;-71
2022/10/10 08:19:44;;;;;;;;;;;11.80;99.90;;;;;;5012027;28;19921;-70
2022/10/10 08:22:10;;;;;;;;;;;11.80;99.90;;;;;;5014143;28;19921;-71
2022/10/10 08:24:35;;;;;;;;;;;12.20;99.90;;;;;;5011010;28;19921;-70
2022/10/10 08:27:01;;;;;;;;;;;12.10;99.90;;;;;;5013209;28;19936;-71
2022/10/10 08:29:26;;;;;;;;;;;12.30;99.90;;;;;;5010600;28;19929;-71
2022/10/10 08:31:52;;;;;;;;;;;12.60;99.90;;;;;;5013438;28;19936;-71
2022/10/10 08:34:17;;;;;;;;;;;13.00;99.90;;;;;;5012857;28;19925;-71
2022/10/10 08:36:43;;;;;;;;;;;13.30;99.90;;;;;;5012428;28;19921;-70
2022/10/10 08:39:09;;;;;;;;;;;13.40;99.90;;;;;;5014047;28;19929;-71
2022/10/10 08:41:45;;;;;;;;;;;13.40;99.90;;;;;;5010478;28;19928;-70
2022/10/10 08:44:19;;;;;;;;;;;13.40;99.90;;;;;;5014224;28;20281;-71
2022/10/10 08:46:47;;;;;;;;;;;13.40;99.90;;;;;;5031070;28;19925;-71
2022/10/10 08:49:17;;;;;;;;;;;13.80;99.90;;;;;;5015400;28;20008;-71
2022/10/10 08:51:47;;;;;;;;;;;14.20;99.90;;;;;;5030927;28;19979;-71
2022/10/10 08:54:14;;;;;;;;;;;14.90;99.90;;;;;;5030945;28;20346;-71
2022/10/10 08:56:40;;;;;;;;;;;15.20;99.90;;;;;;5012837;28;19925;-71
2022/10/10 08:59:18;;;;;;;;;;;15.30;99.90;;;;;;5035415;28;19928;-71
2022/10/10 09:01:43;;;;;;;;;;;15.20;99.90;;;;;;5016288;28;19965;-71
2022/10/10 09:04:14;;;;;;;;;;;14.80;99.90;;;;;;5031405;28;19967;-71
2022/10/10 09:06:55;;;;;;;;;;;14.40;99.90;;;;;;5013479;28;19929;-70
2022/10/10 09:09:28;;;;;;;;;;;14.30;99.90;;;;;;5008463;28;19921;-71
2022/10/10 09:12:17;;;;;;;;;;;14.40;99.90;;;;;;5026894;28;19921;-71
2022/10/10 09:15:01;;;;;;;;;;;14.40;99.90;;;;;;5011715;28;20245;-70
2022/10/10 09:17:46;;;;;;;;;;;14.50;99.90;;;;;;5010115;28;19944;-71
2022/10/10 09:20:14;;;;;;;;;;;14.70;99.90;;;;;;5031225;28;19928;-71
2022/10/10 09:22:56;;;;;;;;;;;15.60;99.90;;;;;;5012500;28;19921;-71
2022/10/10 09:25:26;;;;;;;;;;;16.20;99.90;;;;;;5027190;28;19921;-71
2022/10/10 09:27:57;;;;;;;;;;;16.70;99.90;;;;;;5033137;28;20012;-72
2022/10/10 09:30:24;;;;;;;;;;;17.20;99.90;;;;;;5025784;28;19921;-71
2022/10/10 09:32:53;;;;;;;;;;;17.60;99.90;;;;;;5018507;28;20023;-71
2022/10/10 09:35:26;;;;;;;;;;;17.30;99.90;;;;;;5027884;28;19925;-72
2022/10/10 09:38:12;;;;;;;;;;;17.10;99.90;;;;;;5027299;28;19967;-71
2022/10/10 09:40:49;;;;;;;;;;;17.00;99.90;;;;;;5020007;28;19944;-72
2022/10/10 09:43:19;;;;;;;;;;;17.70;99.90;;;;;;5016564;28;19921;-72
2022/10/10 09:45:47;;;;;;;;;;;18.00;99.90;;;;;;5017052;28;19928;-71
2022/10/10 09:48:12;;;;;;;;;;;17.60;99.90;;;;;;5016921;28;19921;-71
2022/10/10 09:50:38;;;;;;;;;;;17.20;99.90;;;;;;4999476;28;19928;-71
2022/10/10 09:53:03;;;;;;;;;;;16.90;99.90;;;;;;5024305;28;19986;-71
2022/10/10 09:55:34;;;;;;;;;;;16.60;99.90;;;;;;5006202;28;20016;-71
2022/10/10 09:58:14;;;;;;;;;;;16.10;99.90;;;;;;5006747;28;19979;-71
2022/10/10 10:00:40;;;;;;;;;;;15.90;99.90;;;;;;5008333;28;19922;-71
2022/10/10 10:03:05;;;;;;;;;;;15.80;99.90;;;;;;5009805;28;19928;-71
2022/10/10 10:05:31;;;;;;;;;;;15.60;99.90;;;;;;5005522;28;20368;-71
2022/10/10 10:07:57;;;;;;;;;;;15.70;99.90;;;;;;5006440;28;19921;-71
2022/10/10 10:10:26;;;;;;;;;;;15.80;99.90;;;;;;5007256;28;20036;-71
2022/10/10 10:12:52;;;;;;;;;;;15.90;99.90;;;;;;5005489;28;19925;-71
2022/10/10 10:15:22;;;;;;;;;;;15.70;99.90;;;;;;5025328;28;19920;-71
2022/10/10 10:18:06;;;;;;;;;;;15.80;99.90;;;;;;5007199;28;19921;-71
2022/10/10 10:20:33;;;;;;;;;;;15.70;99.90;;;;;;5024914;28;19921;-71
2022/10/10 10:22:59;;;;;;;;;;;15.50;99.90;;;;;;5023800;28;19932;-70
2022/10/10 10:25:27;;;;;;;;;;;15.50;99.90;;;;;;5022534;28;19918;-70
2022/10/10 10:28:12;;;;;;;;;;;15.40;99.90;;;;;;5024252;28;20436;-70
2022/10/10 10:30:38;;;;;;;;;;;15.30;99.90;;;;;;4988902;28;19968;-70
2022/10/10 10:33:19;;;;;;;;;;;15.20;99.90;;;;;;4987276;28;19932;-70
2022/10/10 10:35:52;;;;;;;;;;;15.10;99.90;;;;;;5001366;28;20012;-71
2022/10/10 10:38:35;;;;;;;;;;;15.20;99.90;;;;;;5022496;28;20123;-70
2022/10/10 10:41:04;;;;;;;;;;;15.20;99.90;;;;;;5006197;28;19929;-70
2022/10/10 10:43:42;;;;;;;;;;;15.10;99.90;;;;;;5004577;28;19929;-71
2022/10/10 10:46:11;;;;;;;;;;;15.00;99.90;;;;;;4996039;28;19922;-70
2022/10/10 10:48:36;;;;;;;;;;;14.80;99.90;;;;;;5006974;28;20282;-70
2022/10/10 10:51:11;;;;;;;;;;;14.80;99.90;;;;;;5015268;28;19921;-70
2022/10/10 10:53:54;;;;;;;;;;;14.70;99.90;;;;;;5010936;28;20036;-71
2022/10/10 10:56:36;;;;;;;;;;;14.70;99.90;;;;;;5013216;28;19979;-71
2022/10/10 10:59:17;;;;;;;;;;;14.60;99.90;;;;;;5033136;28;19960;-71
2022/10/10 11:02:18;;;;;;;;;;;14.60;99.90;;;;;;5013704;28;19921;-71
2022/10/10 11:04:56;;;;;;;;;;;14.60;99.90;;;;;;4948176;28;20049;-71
2022/10/10 11:07:23;;;;;;;;;;;14.60;99.90;;;;;;5005209;28;20031;-71
2022/10/10 11:09:59;;;;;;;;;;;14.50;99.90;;;;;;5015424;28;19921;-71
2022/10/10 11:12:43;;;;;;;;;;;14.50;99.90;;;;;;5032721;28;19944;-71
2022/10/10 11:15:15;;;;;;;;;;;14.60;99.90;;;;;;5011226;28;19932;-71
2022/10/10 11:17:52;;;;;;;;;;;14.70;99.90;;;;;;5015701;28;19928;-71
2022/10/10 11:20:37;;;;;;;;;;;14.90;99.90;;;;;;5028498;28;19924;-71
2022/10/10 11:23:05;;;;;;;;;;;15.00;99.90;;;;;;5010647;28;19921;-70
2022/10/10 11:25:32;;;;;;;;;;;15.10;99.90;;;;;;5007325;28;20292;-70
2022/10/10 11:28:00;;;;;;;;;;;15.10;99.90;;;;;;5014832;28;20427;-71
2022/10/10 11:30:29;;;;;;;;;;;15.10;99.90;;;;;;5014651;28;19917;-70
2022/10/10 11:32:58;;;;;;;;;;;15.20;99.90;;;;;;5015045;28;19928;-71
2022/10/10 11:35:59;;;;;;;;;;;15.20;99.90;;;;;;5013702;28;20372;-70
2022/10/10 11:38:31;;;;;;;;;;;15.20;99.90;;;;;;4970653;28;19926;-71
2022/10/10 11:41:00;;;;;;;;;;;15.10;99.90;;;;;;5005014;28;19928;-70
2022/10/10 11:43:39;;;;;;;;;;;14.90;99.90;;;;;;5025945;28;19925;-71
2022/10/10 11:46:10;;;;;;;;;;;14.80;99.90;;;;;;5032442;28;20015;-71
2022/10/10 11:48:35;;;;;;;;;;;14.60;99.90;;;;;;5015874;28;20373;-71
2022/10/10 11:51:04;;;;;;;;;;;14.50;99.90;;;;;;5005074;28;20441;-72
2022/10/10 11:53:36;;;;;;;;;;;14.50;99.90;;;;;;5021266;28;19925;-71
2022/10/10 11:56:16;;;;;;;;;;;14.40;99.90;;;;;;5005616;28;19921;-70
2022/10/10 11:58:44;;;;;;;;;;;14.30;99.90;;;;;;5022542;28;19921;-70
2022/10/10 12:01:24;;;;;;;;;;;14.30;99.90;;;;;;5021814;28;19924;-70
2022/10/10 12:03:51;;;;;;;;;;;14.30;99.90;;;;;;5019716;28;19948;-70
2022/10/10 12:06:17;;;;;;;;;;;14.30;99.90;;;;;;5005255;28;19929;-70
2022/10/10 12:08:45;;;;;;;;;;;14.30;99.90;;;;;;5021647;28;19921;-69
2022/10/10 12:11:23;;;;;;;;;;;14.40;99.90;;;;;;5005784;28;19922;-70
2022/10/10 12:13:52;;;;;;;;;;;14.40;99.90;;;;;;5003064;28;20049;-70
2022/10/10 12:16:19;;;;;;;;;;;14.30;99.90;;;;;;5023453;28;19924;-71
2022/10/10 12:19:04;;;;;;;;;;;14.20;99.90;;;;;;5020334;28;19937;-70
2022/10/10 12:21:30;;;;;;;;;;;14.20;99.90;;;;;;4996414;28;19960;-70
2022/10/10 12:24:04;;;;;;;;;;;14.10;99.90;;;;;;5017636;28;20291;-71
2022/10/10 12:26:52;;;;;;;;;;;14.10;99.90;;;;;;4999319;28;19925;-71
2022/10/10 12:29:44;;;;;;;;;;;13.90;99.90;;;;;;4987424;28;19921;-72
2022/10/10 12:32:13;;;;;;;;;;;13.70;99.90;;;;;;4996708;28;19928;-72
2022/10/10 12:34:38;;;;;;;;;;;13.50;99.90;;;;;;5003851;28;19984;-72
2022/10/10 12:37:21;;;;;;;;;;;13.30;99.90;;;;;;5003966;28;19992;-71
2022/10/10 12:40:05;;;;;;;;;;;13.20;99.90;;;;;;5000795;28;20285;-72
2022/10/10 12:42:36;;;;;;;;;;;13.10;99.90;;;;;;5019070;28;19921;-72
2022/10/10 12:45:23;;;;;;;;;;;13.10;99.90;;;;;;5004447;28;19921;-71
2022/10/10 12:47:52;;;;;;;;;;;13.10;99.90;;;;;;4998238;28;19921;-71
2022/10/10 12:50:24;;;;;;;;;;;13.10;99.90;;;;;;5004612;28;19922;-70
2022/10/10 12:52:56;;;;;;;;;;;13.00;99.90;;;;;;4997932;28;19925;-72
2022/10/10 12:55:39;;;;;;;;;;;12.80;99.90;;;;;;5020189;28;19984;-70
2022/10/10 12:58:07;;;;;;;;;;;12.80;99.90;;;;;;5003604;28;19925;-70
2022/10/10 13:00:48;;;;;;;;;;;12.70;99.90;;;;;;4987713;28;20028;-71
2022/10/10 13:03:17;;;;;;;;;;;12.70;99.90;;;;;;4998099;28;19972;-71
2022/10/10 13:05:47;;;;;;;;;;;12.70;99.90;;;;;;4998134;28;19921;-70
2022/10/10 13:08:17;;;;;;;;;;;12.70;99.90;;;;;;5014886;28;19921;-71
2022/10/10 13:11:00;;;;;;;;;;;12.70;99.90;;;;;;5004462;28;19975;-73
2022/10/10 13:13:26;;;;;;;;;;;12.60;99.90;;;;;;5007462;28;19922;-71
2022/10/10 13:15:52;;;;;;;;;;;12.60;99.90;;;;;;5025562;28;20078;-72
2022/10/10 13:18:36;;;;;;;;;;;12.70;99.90;;;;;;5023827;28;19921;-71
2022/10/10 13:21:03;;;;;;;;;;;12.80;99.90;;;;;;5005955;28;19921;-71
2022/10/10 13:23:29;;;;;;;;;;;12.80;99.90;;;;;;5007021;28;20301;-70
2022/10/10 13:25:54;;;;;;;;;;;12.90;99.90;;;;;;5025229;28;19967;-72
2022/10/10 13:28:20;;;;;;;;;;;13.00;99.90;;;;;;5004544;28;20285;-70
2022/10/10 13:30:47;;;;;;;;;;;13.00;99.90;;;;;;5007641;28;20012;-72
2022/10/10 13:33:20;;;;;;;;;;;13.10;99.90;;;;;;5022924;28;19933;-72
2022/10/10 13:35:49;;;;;;;;;;;13.30;99.90;;;;;;5024217;28;20002;-73
2022/10/10 13:38:15;;;;;;;;;;;13.50;99.90;;;;;;5005568;28;19921;-71
2022/10/10 13:40:44;;;;;;;;;;;13.70;99.90;;;;;;4992209;28;19921;-72
2022/10/10 13:43:13;;;;;;;;;;;13.90;99.90;;;;;;5021487;28;20299;-72
2022/10/10 13:45:45;;;;;;;;;;;14.00;99.90;;;;;;5014306;28;20419;-74
2022/10/10 13:48:10;;;;;;;;;;;14.30;99.90;;;;;;5023023;28;20281;-72
2022/10/10 13:50:42;;;;;;;;;;;14.60;99.90;;;;;;5003637;28;19926;-72
2022/10/10 13:53:23;;;;;;;;;;;15.00;99.90;;;;;;5017834;28;20385;-71
2022/10/10 13:55:49;;;;;;;;;;;15.30;99.90;;;;;;5021330;28;20016;-74
2022/10/10 13:58:15;;;;;;;;;;;15.50;99.90;;;;;;5007660;28;19928;-69
2022/10/10 14:00:40;;;;;;;;;;;15.60;99.90;;;;;;5004430;28;19922;-70
2022/10/10 14:03:14;;;;;;;;;;;15.50;99.90;;;;;;5013635;28;19972;-72
2022/10/10 14:05:42;;;;;;;;;;;15.40;99.90;;;;;;5016666;28;20008;-70
2022/10/10 14:08:15;;;;;;;;;;;15.30;99.90;;;;;;5004198;28;19925;-72
2022/10/10 14:10:40;;;;;;;;;;;15.20;99.90;;;;;;5002955;28;19977;-66
2022/10/10 14:13:14;;;;;;;;;;;15.10;99.90;;;;;;5002243;28;19964;-66
2022/10/10 14:15:39;;;;;;;;;;;15.10;99.90;;;;;;5002485;28;19929;-66
2022/10/10 14:18:24;;;;;;;;;;;15.00;99.90;;;;;;5003613;28;19928;-66
2022/10/10 14:20:50;;;;;;;;;;;15.00;99.90;;;;;;5003681;28;19932;-66
2022/10/10 14:23:16;;;;;;;;;;;15.00;99.90;;;;;;5004291;28;20369;-68
2022/10/10 14:25:43;;;;;;;;;;;14.80;99.90;;;;;;4999926;28;19921;-67
2022/10/10 14:28:22;;;;;;;;;;;14.80;99.90;;;;;;5022378;28;19927;-68
2022/10/10 14:30:48;;;;;;;;;;;14.80;99.90;;;;;;5003853;28;19921;-66
2022/10/10 14:33:14;;;;;;;;;;;14.60;99.90;;;;;;5003852;28;20288;-66
2022/10/10 14:35:41;;;;;;;;;;;14.60;99.90;;;;;;5003255;28;19928;-67